Bookmark and Share
Track history (hours):
 

Himawari 2

Last reported at 2014-Apr-16 21:10 UTC. Time now 2014-Apr-17 01:00 UTC.
Position N 35°58' E 141°01'.

Length 161 m; draft 6.5 m.

Type: Cargo ship. MMSI: 431100957.

NotesDate/timePositionNaut miles runAvg speedWind from/ knotsBaromVisibWave heightAir tempDewpointWater temp
2014-Apr-16 21:10N 35°58' E 141°01'1217.5
2014-Apr-16 20:30N 35°47' E 141°00'1717.6
2014-Apr-16 19:33N 35°31' E 140°54'2319.4
2014-Apr-16 18:21N 35°12' E 140°38'1619.1
2014-Apr-16 17:31N 35°00' E 140°24'1819.2
2014-Apr-16 16:33N 34°53' E 140°03'1717.3
2014-Apr-16 15:33N 34°55' E 139°42'1818.5
2014-Apr-16 14:33N 35°13' E 139°46'1312.6
2014-Apr-16 13:33N 35°26' E 139°46'1211.3
2014-Apr-16 12:28N 35°38' E 139°50'0 0.0
2014-Apr-16 11:31N 35°38' E 139°50'0 0.0
2014-Apr-16 10:28N 35°38' E 139°50'0 0.0
2014-Apr-16 09:22N 35°38' E 139°50'0 0.0
2014-Apr-16 08:28N 35°38' E 139°50'0 0.0
2014-Apr-16 07:31N 35°38' E 139°50'0 0.0
2014-Apr-16 06:31N 35°38' E 139°50'0 0.0
2014-Apr-16 05:31N 35°38' E 139°50'0 0.0
2014-Apr-16 04:31N 35°38' E 139°50'0 0.0
2014-Apr-16 03:31N 35°38' E 139°50'0 0.0
2014-Apr-16 02:31N 35°38' E 139°50'0 0.0
2014-Apr-16 01:22N 35°38' E 139°50'0 0.0
2014-Apr-16 00:32N 35°38' E 139°50'4 3.6
2014-Apr-15 23:34N 35°35' E 139°51'1514.7
2014-Apr-15 22:33N 35°21' E 139°45'1111.0
2014-Apr-15 21:33N 35°10' E 139°47'1515.4
2014-Apr-15 20:33N 34°59' E 139°34'23418.0
2014-Apr-15 07:34N 34°02' E 134°58'2423.5
2014-Apr-15 06:34N 34°25' E 134°60'1110.7
2014-Apr-15 05:34N 34°35' E 134°53'5 0.4
2014-Apr-14 16:33N 34°34' E 134°48'1312.9
2014-Apr-14 15:33N 34°36' E 135°03'1616.3
2014-Apr-14 14:33N 34°38' E 135°23'2 1.8
2014-Apr-14 13:30N 34°40' E 135°24'0 0.0
2014-Apr-14 11:30N 34°40' E 135°24'0 0.0
2014-Apr-14 09:30N 34°40' E 135°24'0 0.0
2014-Apr-14 07:34N 34°40' E 135°24'0 0.0
2014-Apr-14 06:33N 34°40' E 135°24'0 0.0
2014-Apr-14 05:34N 34°40' E 135°24'20710.9
2014-Apr-13 10:34N 35°01' E 139°36'1716.6
2014-Apr-13 09:33N 35°15' E 139°46'1110.7
2014-Apr-13 08:34N 35°26' E 139°46'1211.7
2014-Apr-13 07:31N 35°38' E 139°50'0 0.0
2014-Apr-13 06:31N 35°38' E 139°50'0 0.0
2014-Apr-13 05:31N 35°38' E 139°50'0 0.0
2014-Apr-13 04:33N 35°38' E 139°50'8 8.1
2014-Apr-13 03:34N 35°30' E 139°52'1313.0
2014-Apr-13 02:33N 35°19' E 139°44'1212.0
2014-Apr-13 01:33N 35°07' E 139°47'1413.9
2014-Apr-13 00:33N 34°53' E 139°47'1716.8
2014-Apr-12 23:33N 34°56' E 140°07'2521.2
2014-Apr-12 22:24N 35°10' E 140°32'1821.5
2014-Apr-12 21:33N 35°25' E 140°45'2121.0
2014-Apr-12 20:33N 35°44' E 140°57'  
2014-Apr-09 22:18N 35°44' E 140°58'2323.2
2014-Apr-09 21:18N 35°23' E 140°45'3024.2
2014-Apr-09 20:04N 35°00' E 140°22'1223.5
2014-Apr-09 19:33N 34°55' E 140°08'2119.8
2014-Apr-09 18:31N 34°58' E 139°43'1718.1
2014-Apr-09 17:34N 35°15' E 139°46'1313.2
2014-Apr-09 16:34N 35°28' E 139°48'1010.0
2014-Apr-09 15:32N 35°38' E 139°50'0 0.0
2014-Apr-09 14:29N 35°38' E 139°50'0 0.0
2014-Apr-09 13:29N 35°38' E 139°50'0 0.0
2014-Apr-09 12:29N 35°38' E 139°50'0 0.0
2014-Apr-09 11:32N 35°38' E 139°50'0 0.0
2014-Apr-09 10:29N 35°38' E 139°50'0 0.0
2014-Apr-09 09:32N 35°38' E 139°50'1 1.0
2014-Apr-09 08:33N 35°37' E 139°50'1312.6
2014-Apr-09 07:33N 35°24' E 139°47'1111.1
2014-Apr-09 06:34N 35°13' E 139°47'1515.5
2014-Apr-09 05:34N 35°00' E 139°37'2322.6
2014-Apr-09 04:32N 34°45' E 139°16'21619.7
2014-Apr-08 17:33N 34°05' E 134°58'2323.2
2014-Apr-08 16:33N 34°28' E 135°01'9 9.1
2014-Apr-08 15:34N 34°35' E 134°54'10 1.0
2014-Apr-08 05:12N 34°32' E 134°42'1421.1
2014-Apr-08 04:33N 34°37' E 134°57'1616.2
2014-Apr-08 03:33N 34°37' E 135°17'7 5.6
2014-Apr-08 02:21N 34°40' E 135°24'0 0.0
2014-Apr-08 01:27N 34°40' E 135°24'0 0.0
2014-Apr-08 00:33N 34°40' E 135°24'0 0.0
2014-Apr-07 23:33N 34°40' E 135°24'0 0.0
2014-Apr-07 22:34N 34°40' E 135°24'1 0.7
2014-Apr-07 21:34N 34°39' E 135°24'1413.2
2014-Apr-07 20:32N 34°30' E 135°12'1515.3
2014-Apr-07 19:33N 34°18' E 135°00'23116.5
2014-Apr-07 05:33N 34°43' E 139°39'2121.6
2014-Apr-07 04:33N 34°53' E 140°02'2320.1
2014-Apr-07 03:26N 35°04' E 140°26'2021.4
2014-Apr-07 02:31N 35°21' E 140°39'2223.2
2014-Apr-07 01:33N 35°39' E 140°55'  

Dump ship's entire track history

sailing weather and tide predictions

Himawari 2 — JG5636 — position and weather